Time;durP1;ratioP1;P1;durP2;ratioP2;P2;SDS_P1;SDS_P2;PMS_P1;PMS_P2;Temp;Humidity;BMP_temperature;BMP_pressure;BME280_temperature;BME280_humidity;BME280_pressure;Samples;Min_cycle;Max_cycle;Signal;HPM_P1;HPM_P2
2023/05/02 00:00:54;;;;;;;2.92;1.02;;;19.10;1.00;;;;;;4842299;29;20053;-45
2023/05/02 00:03:22;;;;;;;6.30;1.10;;;19.10;1.00;;;;;;4842061;29;20042;-44
2023/05/02 00:05:49;;;;;;;3.80;0.98;;;19.10;1.00;;;;;;4841947;29;20042;-44
2023/05/02 00:08:15;;;;;;;2.70;0.75;;;19.10;1.00;;;;;;4842047;29;20070;-45
2023/05/02 00:10:42;;;;;;;4.93;1.08;;;19.00;1.00;;;;;;4842102;29;20104;-44
2023/05/02 00:13:09;;;;;;;3.33;1.17;;;19.10;1.00;;;;;;4841861;29;20057;-44
2023/05/02 00:15:36;;;;;;;1.65;0.68;;;19.00;1.00;;;;;;4841737;29;20395;-45
2023/05/02 00:18:03;;;;;;;2.50;0.85;;;19.00;1.00;;;;;;4841093;29;20053;-45
2023/05/02 00:20:30;;;;;;;4.88;1.05;;;19.00;1.00;;;;;;4827988;29;20456;-44
2023/05/02 00:22:56;;;;;;;2.55;0.88;;;19.00;1.00;;;;;;4841922;29;20065;-44
2023/05/02 00:25:23;;;;;;;6.60;1.00;;;19.00;1.00;;;;;;4841601;29;20417;-44
2023/05/02 00:27:50;;;;;;;3.10;1.05;;;19.00;1.00;;;;;;4841751;29;20045;-45
2023/05/02 00:30:17;;;;;;;4.18;1.23;;;19.00;1.00;;;;;;4841792;29;20427;-44
2023/05/02 00:32:44;;;;;;;3.97;0.85;;;19.00;1.00;;;;;;4840280;29;20503;-45
2023/05/02 00:35:11;;;;;;;6.93;1.17;;;18.90;1.00;;;;;;4840124;29;20522;-43
2023/05/02 00:37:38;;;;;;;4.93;1.45;;;18.90;1.00;;;;;;4841726;29;20491;-44
2023/05/02 00:40:06;;;;;;;3.90;1.60;;;19.00;1.00;;;;;;4841493;29;20046;-44
2023/05/02 00:42:35;;;;;;;4.05;0.90;;;19.00;1.00;;;;;;4840247;29;20070;-44
2023/05/02 00:45:05;;;;;;;1.30;0.55;;;18.90;1.00;;;;;;4839928;29;20057;-44
2023/05/02 00:47:32;;;;;;;1.85;0.82;;;18.90;1.00;;;;;;4841442;29;20134;-45
2023/05/02 00:49:59;;;;;;;3.92;1.27;;;18.90;1.00;;;;;;4840182;29;20074;-44
2023/05/02 00:52:27;;;;;;;6.65;1.45;;;18.90;1.00;;;;;;4841918;29;20042;-44
2023/05/02 00:54:54;;;;;;;3.60;0.93;;;18.90;1.00;;;;;;4841159;29;20037;-44
2023/05/02 00:57:21;;;;;;;5.57;1.13;;;18.90;1.00;;;;;;4839983;29;20112;-44
2023/05/02 00:59:49;;;;;;;2.40;0.55;;;18.90;1.00;;;;;;4840286;29;20064;-44
2023/05/02 01:02:24;;;;;;;3.03;0.65;;;18.90;1.00;;;;;;4840020;29;20049;-44
2023/05/02 01:05:26;;;;;;;3.38;0.85;;;18.80;1.00;;;;;;4841082;29;20118;-44
2023/05/02 01:08:13;;;;;;;2.72;0.80;;;18.90;1.00;;;;;;4811239;29;20060;-44
2023/05/02 01:10:48;;;;;;;3.58;1.17;;;18.90;1.00;;;;;;4840106;29;20046;-44
2023/05/02 01:13:27;;;;;;;3.40;1.10;;;18.80;1.00;;;;;;4841026;29;20061;-44
2023/05/02 01:15:57;;;;;;;3.50;0.88;;;18.80;1.00;;;;;;4839814;29;20534;-45
2023/05/02 01:18:26;;;;;;;3.20;0.95;;;18.80;1.00;;;;;;4839773;29;20046;-44
2023/05/02 01:21:01;;;;;;;3.10;1.05;;;18.80;1.00;;;;;;4841197;29;20494;-44
2023/05/02 01:23:35;;;;;;;7.70;1.13;;;18.80;1.00;;;;;;4840953;29;20038;-44
2023/05/02 01:26:31;;;;;;;4.13;1.00;;;18.80;1.00;;;;;;4840947;29;20056;-44
2023/05/02 01:29:05;;;;;;;3.58;1.00;;;18.80;1.00;;;;;;4839857;29;20057;-43
2023/05/02 01:31:35;;;;;;;4.15;1.00;;;18.80;1.00;;;;;;4841128;29;20045;-45
2023/05/02 01:34:06;;;;;;;3.35;0.70;;;18.70;1.00;;;;;;4839438;29;20050;-45
2023/05/02 01:36:35;;;;;;;5.53;1.27;;;18.70;1.00;;;;;;4839859;29;20118;-44
2023/05/02 01:39:06;;;;;;;2.95;0.90;;;18.70;1.00;;;;;;4839659;29;20077;-45
2023/05/02 01:41:34;;;;;;;2.80;1.00;;;18.80;1.00;;;;;;4840949;29;20075;-44
2023/05/02 01:44:01;;;;;;;3.25;0.90;;;18.70;1.00;;;;;;4839423;29;20054;-44
2023/05/02 01:46:33;;;;;;;3.08;1.02;;;18.70;1.00;;;;;;4840901;29;20038;-44
2023/05/02 01:49:04;;;;;;;3.25;0.85;;;18.70;1.00;;;;;;4839998;29;20053;-44
2023/05/02 01:51:33;;;;;;;2.80;0.60;;;18.70;1.00;;;;;;4840046;29;20568;-44
2023/05/02 01:54:05;;;;;;;4.65;0.77;;;18.70;1.00;;;;;;4844042;29;20049;-43
2023/05/02 01:56:35;;;;;;;5.20;0.93;;;18.70;1.00;;;;;;4843239;29;20049;-43
2023/05/02 01:59:06;;;;;;;2.85;0.68;;;18.70;1.00;;;;;;4843061;29;20107;-44
2023/05/02 02:01:36;;;;;;;4.47;0.70;;;18.70;1.00;;;;;;4844464;29;20490;-43
2023/05/02 02:04:07;;;;;;;2.63;0.80;;;18.70;1.00;;;;;;4842689;29;20050;-46
2023/05/02 02:06:34;;;;;;;5.90;1.13;;;18.70;1.00;;;;;;4844238;29;20049;-43
2023/05/02 02:09:02;;;;;;;2.75;0.80;;;18.70;1.00;;;;;;4842928;29;20053;-43
2023/05/02 02:11:43;;;;;;;3.83;1.35;;;18.70;1.00;;;;;;4842876;29;20415;-45
2023/05/02 02:14:34;;;;;;;2.67;0.68;;;18.60;1.00;;;;;;4843903;29;20064;-45
2023/05/02 02:17:14;;;;;;;3.90;0.80;;;18.60;1.00;;;;;;4842815;29;20057;-45
2023/05/02 02:19:42;;;;;;;2.70;0.90;;;18.60;1.00;;;;;;4842826;29;20062;-44
2023/05/02 02:22:12;;;;;;;4.45;1.00;;;18.60;1.00;;;;;;4842810;29;20050;-43
2023/05/02 02:24:40;;;;;;;3.28;0.88;;;18.60;1.00;;;;;;4842376;29;20081;-44
2023/05/02 02:27:06;;;;;;;4.95;1.70;;;18.60;1.00;;;;;;4842544;29;20056;-44
2023/05/02 02:29:34;;;;;;;5.95;1.33;;;18.60;1.00;;;;;;4843815;29;20038;-44
2023/05/02 02:32:00;;;;;;;4.10;1.33;;;18.50;1.00;;;;;;4842682;29;20529;-45
2023/05/02 02:34:27;;;;;;;5.03;1.08;;;18.60;1.00;;;;;;4833250;29;20110;-44
2023/05/02 02:37:11;;;;;;;4.00;1.10;;;18.50;1.00;;;;;;4839423;29;20459;-44
2023/05/02 02:39:59;;;;;;;4.55;0.88;;;18.50;1.00;;;;;;4842499;29;20061;-46
2023/05/02 02:42:44;;;;;;;2.58;1.00;;;18.50;1.00;;;;;;4843581;29;20048;-43
2023/05/02 02:45:28;;;;;;;5.40;1.02;;;18.50;1.00;;;;;;4826863;29;20050;-44
2023/05/02 02:48:26;;;;;;;4.93;1.55;;;18.50;1.00;;;;;;4843635;29;20499;-44
2023/05/02 02:50:58;;;;;;;2.25;0.77;;;18.50;1.00;;;;;;4842413;29;20163;-44
2023/05/02 02:53:33;;;;;;;3.65;1.00;;;18.50;1.00;;;;;;4841926;29;20057;-44
2023/05/02 02:56:04;;;;;;;3.80;0.93;;;18.50;1.00;;;;;;4842103;29;20102;-44
2023/05/02 02:58:53;;;;;;;2.53;0.90;;;18.50;1.00;;;;;;4842136;29;20110;-44
2023/05/02 03:01:24;;;;;;;3.45;0.77;;;18.50;1.00;;;;;;4843381;29;20042;-44
2023/05/02 03:03:53;;;;;;;2.28;0.93;;;18.50;1.00;;;;;;4840825;29;20058;-45
2023/05/02 03:06:20;;;;;;;2.90;1.17;;;18.50;1.00;;;;;;4841762;29;20050;-43
2023/05/02 03:08:49;;;;;;;3.53;0.98;;;18.40;1.00;;;;;;4841761;29;20057;-45
2023/05/02 03:11:18;;;;;;;2.65;0.80;;;18.50;1.00;;;;;;4841791;29;20110;-45
2023/05/02 03:13:46;;;;;;;6.85;1.20;;;18.40;1.00;;;;;;4841787;29;20427;-43
2023/05/02 03:16:36;;;;;;;6.13;1.30;;;18.40;1.00;;;;;;4841765;29;20141;-44
2023/05/02 03:19:07;;;;;;;2.15;1.27;;;18.40;1.00;;;;;;4842011;29;20444;-46
2023/05/02 03:21:35;;;;;;;3.10;1.00;;;18.40;1.00;;;;;;4841687;29;20398;-44
2023/05/02 03:24:08;;;;;;;3.70;1.55;;;18.40;1.00;;;;;;4841350;29;20421;-44
2023/05/02 03:26:35;;;;;;;2.28;0.85;;;18.40;1.00;;;;;;4841755;29;20082;-44
2023/05/02 03:29:03;;;;;;;3.70;1.05;;;18.40;1.00;;;;;;4841541;29;20054;-44
2023/05/02 03:31:35;;;;;;;2.45;1.05;;;18.30;1.00;;;;;;4841657;29;20042;-45
2023/05/02 03:34:02;;;;;;;5.65;1.15;;;18.30;1.00;;;;;;4841240;29;20046;-45
2023/05/02 03:36:30;;;;;;;4.30;1.00;;;18.40;1.00;;;;;;4841594;29;20179;-44
2023/05/02 03:38:57;;;;;;;3.92;1.10;;;18.30;1.00;;;;;;4841430;29;20103;-44
2023/05/02 03:41:24;;;;;;;6.30;1.33;;;18.40;1.00;;;;;;4841500;29;20137;-43
2023/05/02 03:43:58;;;;;;;3.33;0.90;;;18.30;1.00;;;;;;4841232;29;20049;-45
2023/05/02 03:46:26;;;;;;;3.50;1.58;;;18.30;1.00;;;;;;4841109;29;20598;-44
2023/05/02 03:48:56;;;;;;;6.38;1.40;;;18.30;1.00;;;;;;4841253;29;20450;-44
2023/05/02 03:51:22;;;;;;;6.68;1.65;;;18.30;1.00;;;;;;4841322;29;20054;-44
2023/05/02 03:53:53;;;;;;;2.58;1.15;;;18.30;1.00;;;;;;4840960;29;20114;-44
2023/05/02 03:56:20;;;;;;;5.82;1.10;;;18.30;1.00;;;;;;4840931;29;20053;-45
2023/05/02 03:58:57;;;;;;;6.68;1.35;;;18.30;1.00;;;;;;4841039;29;20045;-43
2023/05/02 04:01:25;;;;;;;7.45;1.30;;;18.30;1.00;;;;;;4840960;29;20498;-44
2023/05/02 04:03:53;;;;;;;3.78;0.73;;;18.20;1.00;;;;;;4840832;29;20460;-45
2023/05/02 04:06:23;;;;;;;5.07;0.95;;;18.30;1.00;;;;;;4840748;29;20633;-43
2023/05/02 04:08:57;;;;;;;2.90;1.13;;;18.30;1.00;;;;;;4840720;29;20042;-46
2023/05/02 04:11:27;;;;;;;5.28;1.58;;;18.20;1.00;;;;;;4825381;29;20074;-43
2023/05/02 04:13:54;;;;;;;3.20;0.80;;;18.20;1.00;;;;;;4840448;29;20106;-43
2023/05/02 04:16:21;;;;;;;3.92;1.20;;;18.20;1.00;;;;;;4825063;29;20053;-44
2023/05/02 04:18:48;;;;;;;9.02;1.40;;;18.20;1.00;;;;;;4840489;29;20053;-44
2023/05/02 04:21:16;;;;;;;8.10;2.55;;;18.20;1.00;;;;;;4839490;29;20433;-44
2023/05/02 04:23:44;;;;;;;7.70;1.00;;;18.20;1.00;;;;;;4839192;29;20145;-43
2023/05/02 04:26:11;;;;;;;8.52;1.98;;;18.20;1.00;;;;;;4839963;29;20054;-43
2023/05/02 04:28:52;;;;;;;7.88;2.25;;;18.20;1.00;;;;;;4835253;29;20102;-43
2023/05/02 04:31:19;;;;;;;6.97;2.08;;;18.20;1.00;;;;;;4830863;29;20053;-44
2023/05/02 04:33:47;;;;;;;4.85;1.58;;;18.20;1.00;;;;;;4839779;29;20057;-44
2023/05/02 04:36:18;;;;;;;4.85;1.63;;;18.20;1.00;;;;;;4840057;29;20073;-44
2023/05/02 04:38:45;;;;;;;7.25;1.55;;;18.20;1.00;;;;;;4840254;29;20144;-43
2023/05/02 04:41:14;;;;;;;3.38;1.40;;;18.20;1.00;;;;;;4840358;29;20061;-43
2023/05/02 04:43:47;;;;;;;4.28;1.30;;;18.10;1.00;;;;;;4840094;29;20533;-43
2023/05/02 04:46:16;;;;;;;4.95;1.25;;;18.10;1.00;;;;;;4840092;29;20058;-43
2023/05/02 04:48:43;;;;;;;5.85;1.45;;;18.10;1.00;;;;;;4841409;29;20114;-43
2023/05/02 04:51:10;;;;;;;3.65;1.15;;;18.10;1.00;;;;;;4840189;29;20073;-44
2023/05/02 04:53:36;;;;;;;8.73;1.75;;;18.10;1.00;;;;;;4839910;29;20045;-43
2023/05/02 04:56:04;;;;;;;7.18;2.05;;;18.10;1.00;;;;;;4839908;29;20075;-42
2023/05/02 04:58:34;;;;;;;5.85;1.00;;;18.10;1.00;;;;;;4840057;29;20046;-44
2023/05/02 05:01:04;;;;;;;6.07;1.20;;;18.10;1.00;;;;;;4840114;29;20081;-45
2023/05/02 05:03:32;;;;;;;2.55;1.25;;;18.10;1.00;;;;;;4839675;29;20058;-43
2023/05/02 05:06:01;;;;;;;5.70;1.10;;;18.00;1.00;;;;;;4840014;29;20316;-43
2023/05/02 05:08:28;;;;;;;5.80;1.15;;;18.00;1.00;;;;;;4839866;29;20050;-43
2023/05/02 05:10:56;;;;;;;5.57;1.20;;;18.00;1.00;;;;;;4841133;29;20038;-43
2023/05/02 05:13:23;;;;;;;5.65;1.25;;;18.00;1.00;;;;;;4839846;29;20049;-43
2023/05/02 05:15:51;;;;;;;4.28;0.73;;;18.00;1.00;;;;;;4839779;29;20050;-43
2023/05/02 05:18:22;;;;;;;6.40;1.00;;;18.00;1.00;;;;;;4839810;29;20050;-43
2023/05/02 05:20:49;;;;;;;2.85;0.93;;;18.00;1.00;;;;;;4839980;29;20355;-44
2023/05/02 05:23:16;;;;;;;5.70;1.30;;;18.00;1.00;;;;;;4824695;29;20050;-44
2023/05/02 05:25:43;;;;;;;4.00;1.67;;;18.00;1.00;;;;;;4840924;29;20050;-43
2023/05/02 05:28:14;;;;;;;4.00;1.17;;;18.00;1.00;;;;;;4842806;29;20046;-43
2023/05/02 05:30:41;;;;;;;2.55;1.20;;;18.00;1.00;;;;;;4843650;29;20054;-44
2023/05/02 05:33:13;;;;;;;6.28;1.70;;;18.00;1.00;;;;;;4843618;29;20053;-43
2023/05/02 05:35:41;;;;;;;3.60;0.98;;;18.00;1.00;;;;;;4843337;29;20573;-43
2023/05/02 05:38:08;;;;;;;4.05;1.08;;;18.00;1.00;;;;;;4843547;29;20533;-44
2023/05/02 05:40:37;;;;;;;3.30;1.00;;;18.00;1.00;;;;;;4843426;29;20052;-43
2023/05/02 05:43:06;;;;;;;3.10;1.45;;;17.90;1.00;;;;;;4843269;29;20050;-43
2023/05/02 05:45:36;;;;;;;2.00;0.88;;;18.00;1.00;;;;;;4843001;29;20069;-44
2023/05/02 05:48:04;;;;;;;5.60;1.50;;;17.90;1.00;;;;;;4843336;29;20057;-43
2023/05/02 05:50:36;;;;;;;1.48;0.90;;;17.90;1.00;;;;;;4843127;29;20077;-43
2023/05/02 05:53:02;;;;;;;2.63;0.82;;;17.90;1.00;;;;;;4843211;29;20057;-43
2023/05/02 05:55:29;;;;;;;3.83;1.15;;;18.00;1.00;;;;;;4842638;29;20137;-44
2023/05/02 05:57:56;;;;;;;4.38;0.90;;;17.90;1.00;;;;;;4843287;29;20248;-43
2023/05/02 06:00:23;;;;;;;3.55;1.10;;;17.90;1.00;;;;;;4842997;29;20053;-44
2023/05/02 06:02:51;;;;;;;2.80;0.80;;;17.90;1.00;;;;;;4843182;29;20061;-44
2023/05/02 06:05:25;;;;;;;3.03;0.80;;;17.90;1.00;;;;;;4842581;29;20049;-43
2023/05/02 06:07:52;;;;;;;3.28;1.00;;;17.90;1.00;;;;;;4844295;29;20042;-45
2023/05/02 06:10:18;;;;;;;4.95;1.48;;;17.90;1.00;;;;;;4842643;29;20522;-44
2023/05/02 06:12:46;;;;;;;3.80;1.20;;;17.90;1.00;;;;;;4842980;29;20049;-44
2023/05/02 06:15:17;;;;;;;2.92;0.88;;;17.90;1.00;;;;;;4842473;29;20042;-44
2023/05/02 06:17:44;;;;;;;3.05;0.75;;;17.90;1.00;;;;;;4843107;29;20054;-45
2023/05/02 06:20:11;;;;;;;3.25;0.90;;;17.90;1.00;;;;;;4842741;29;20374;-44
2023/05/02 06:22:38;;;;;;;3.10;0.95;;;17.90;1.00;;;;;;4843837;29;20121;-43
2023/05/02 06:25:06;;;;;;;2.45;0.80;;;17.90;1.00;;;;;;4842384;29;20062;-44
2023/05/02 06:27:33;;;;;;;5.40;0.85;;;17.90;1.00;;;;;;4843814;29;20587;-45
2023/05/02 06:30:00;;;;;;;3.40;1.17;;;17.90;1.00;;;;;;4843793;29;20049;-46
2023/05/02 06:32:31;;;;;;;3.30;1.10;;;17.90;1.00;;;;;;4844150;29;20529;-43
2023/05/02 06:34:58;;;;;;;2.50;0.60;;;17.90;1.00;;;;;;4843372;29;20447;-43
2023/05/02 06:37:24;;;;;;;5.97;0.70;;;17.90;1.00;;;;;;4843362;29;20038;-45
2023/05/02 06:39:51;;;;;;;2.72;0.93;;;17.90;1.00;;;;;;4843667;29;20053;-44
2023/05/02 06:42:18;;;;;;;2.90;1.00;;;17.90;1.00;;;;;;4843871;29;20042;-43
2023/05/02 06:44:45;;;;;;;2.85;0.90;;;17.90;1.00;;;;;;4843147;29;20052;-44
2023/05/02 06:47:12;;;;;;;1.98;0.85;;;17.90;1.00;;;;;;4843576;29;20073;-43
2023/05/02 06:49:38;;;;;;;2.47;0.90;;;17.90;1.00;;;;;;4843316;29;20049;-44
2023/05/02 06:52:05;;;;;;;4.22;1.17;;;17.90;1.00;;;;;;4843464;29;20042;-44
2023/05/02 06:54:32;;;;;;;3.60;1.40;;;17.80;1.00;;;;;;4842916;29;20042;-44
2023/05/02 06:56:59;;;;;;;2.25;1.08;;;17.90;1.00;;;;;;4843604;29;20050;-44
2023/05/02 06:59:26;;;;;;;4.97;1.23;;;17.90;1.00;;;;;;4843296;29;20050;-44
2023/05/02 07:01:53;;;;;;;5.55;1.27;;;17.90;1.00;;;;;;4843407;29;20042;-45
2023/05/02 07:04:20;;;;;;;4.57;0.90;;;17.90;1.00;;;;;;4842910;29;20403;-44
2023/05/02 07:06:47;;;;;;;4.93;0.90;;;17.90;1.00;;;;;;4843247;29;20102;-44
2023/05/02 07:09:14;;;;;;;3.60;1.02;;;17.80;1.00;;;;;;4842866;29;20045;-45
2023/05/02 07:11:40;;;;;;;5.07;1.20;;;17.90;1.00;;;;;;4843181;29;20046;-44
2023/05/02 07:14:07;;;;;;;4.07;0.88;;;17.80;1.00;;;;;;4842791;29;20429;-45
2023/05/02 07:16:34;;;;;;;4.45;1.20;;;17.90;1.00;;;;;;4843062;29;20128;-45
2023/05/02 07:19:03;;;;;;;4.22;1.10;;;17.80;1.00;;;;;;4842739;29;20038;-45
2023/05/02 07:21:31;;;;;;;2.92;0.85;;;17.90;1.00;;;;;;4842985;29;20045;-46
2023/05/02 07:23:57;;;;;;;1.95;0.90;;;17.90;1.00;;;;;;4842721;29;20069;-44
2023/05/02 07:26:26;;;;;;;4.82;1.20;;;17.80;1.00;;;;;;4842692;29;20510;-46
2023/05/02 07:28:53;;;;;;;3.60;0.88;;;17.80;1.00;;;;;;4842764;29;20490;-43
2023/05/02 07:31:20;;;;;;;3.10;1.02;;;17.80;1.00;;;;;;4842777;29;20111;-44
2023/05/02 07:33:46;;;;;;;4.47;0.80;;;17.80;1.00;;;;;;4827582;29;20128;-44
2023/05/02 07:36:13;;;;;;;2.47;0.88;;;17.80;1.00;;;;;;4842658;29;20041;-43
2023/05/02 07:38:40;;;;;;;3.97;0.93;;;17.80;1.00;;;;;;4842648;29;20482;-44
2023/05/02 07:41:07;;;;;;;1.33;0.77;;;17.80;1.00;;;;;;4829378;29;20061;-43
2023/05/02 07:43:34;;;;;;;3.60;0.90;;;17.80;1.00;;;;;;4840707;29;20045;-43
2023/05/02 07:46:05;;;;;;;2.22;0.80;;;17.80;1.00;;;;;;4842344;29;20065;-43
2023/05/02 07:48:32;;;;;;;5.05;1.42;;;17.80;1.00;;;;;;4842402;29;20406;-44
2023/05/02 07:51:08;;;;;;;2.10;0.77;;;17.80;1.00;;;;;;4841885;29;20030;-44
2023/05/02 07:53:35;;;;;;;3.95;1.17;;;17.80;1.00;;;;;;4842230;29;20483;-44
2023/05/02 07:56:07;;;;;;;3.20;0.85;;;17.80;1.00;;;;;;4842248;29;20498;-44
2023/05/02 07:58:35;;;;;;;4.65;1.17;;;17.80;1.00;;;;;;4842259;29;20041;-44
2023/05/02 08:01:03;;;;;;;2.95;0.90;;;17.80;1.00;;;;;;4842292;29;20042;-44
2023/05/02 08:03:30;;;;;;;2.35;0.85;;;17.80;1.00;;;;;;4841950;29;20073;-45
2023/05/02 08:05:57;;;;;;;3.78;1.17;;;17.80;1.00;;;;;;4842050;29;20070;-44
2023/05/02 08:08:24;;;;;;;4.28;0.75;;;17.80;1.00;;;;;;4841998;29;20049;-44
2023/05/02 08:10:51;;;;;;;5.43;1.15;;;17.80;1.00;;;;;;4841940;29;20042;-45
2023/05/02 08:13:18;;;;;;;2.03;0.80;;;17.80;1.00;;;;;;4841918;29;20050;-45
2023/05/02 08:15:45;;;;;;;5.15;1.35;;;17.80;1.00;;;;;;4841963;29;20046;-44
2023/05/02 08:18:12;;;;;;;4.07;1.30;;;17.80;1.00;;;;;;4841991;29;20038;-44
2023/05/02 08:20:39;;;;;;;2.90;1.13;;;17.80;1.00;;;;;;4841709;29;20115;-44
2023/05/02 08:23:06;;;;;;;3.97;0.73;;;17.80;1.00;;;;;;4841814;29;20049;-45
2023/05/02 08:25:33;;;;;;;6.95;1.02;;;17.80;1.00;;;;;;4841366;29;20046;-44
2023/05/02 08:27:59;;;;;;;3.70;1.40;;;17.80;1.00;;;;;;4841668;29;20042;-44
2023/05/02 08:30:26;;;;;;;2.13;0.80;;;17.80;1.00;;;;;;4841600;29;20068;-44
2023/05/02 08:32:53;;;;;;;3.30;1.00;;;17.80;1.00;;;;;;4841698;29;20045;-46
2023/05/02 08:35:20;;;;;;;2.60;0.90;;;17.80;1.00;;;;;;4841812;29;20098;-45
2023/05/02 08:37:46;;;;;;;3.75;1.35;;;17.80;1.00;;;;;;4841648;29;20049;-45
2023/05/02 08:40:16;;;;;;;1.60;0.80;;;17.80;1.00;;;;;;4841438;29;20388;-44
2023/05/02 08:42:56;;;;;;;3.10;1.08;;;17.80;1.00;;;;;;4841658;29;20391;-44
2023/05/02 08:45:23;;;;;;;4.25;1.48;;;17.80;1.00;;;;;;4841221;29;20045;-44
2023/05/02 08:47:51;;;;;;;1.77;0.88;;;17.80;1.00;;;;;;4826608;29;20114;-44
2023/05/02 08:50:19;;;;;;;3.95;1.10;;;17.80;1.00;;;;;;4841401;29;20060;-45
2023/05/02 08:52:50;;;;;;;4.32;1.35;;;17.80;1.00;;;;;;4841327;29;20034;-44
2023/05/02 08:55:18;;;;;;;5.00;1.20;;;17.80;1.00;;;;;;4841051;29;20491;-44
2023/05/02 08:57:45;;;;;;;2.35;0.68;;;17.80;1.00;;;;;;4841381;29;20041;-44
2023/05/02 09:00:12;;;;;;;4.15;1.38;;;17.70;1.00;;;;;;4841270;29;20046;-47
2023/05/02 09:03:16;;;;;;;3.20;1.13;;;17.80;1.00;;;;;;4841342;29;20306;-44
2023/05/02 09:05:51;;;;;;;2.13;0.90;;;17.80;1.00;;;;;;4831342;29;20051;-44
2023/05/02 09:08:24;;;;;;;5.28;1.38;;;17.80;1.00;;;;;;4837165;29;20061;-44
2023/05/02 09:10:51;;;;;;;6.07;1.05;;;17.80;1.00;;;;;;4826256;29;20044;-45
2023/05/02 09:13:36;;;;;;;2.95;1.02;;;17.80;1.00;;;;;;4841176;29;20038;-44
2023/05/02 09:16:08;;;;;;;2.22;1.55;;;17.80;1.00;;;;;;4840985;29;20034;-44
2023/05/02 09:18:44;;;;;;;4.82;0.80;;;17.70;1.00;;;;;;4841349;29;20080;-43
2023/05/02 09:21:19;;;;;;;3.42;1.00;;;17.80;1.00;;;;;;4841645;29;20077;-47
2023/05/02 09:23:55;;;;;;;2.83;1.05;;;17.80;1.00;;;;;;4840821;29;20522;-45
2023/05/02 09:26:25;;;;;;;3.00;1.30;;;17.70;1.00;;;;;;4841106;29;20065;-45
2023/05/02 09:28:55;;;;;;;3.85;2.08;;;17.80;1.00;;;;;;4841081;29;20038;-44
2023/05/02 09:31:29;;;;;;;5.03;1.48;;;17.80;1.00;;;;;;4840994;29;20038;-44
2023/05/02 09:34:16;;;;;;;3.70;0.90;;;17.80;1.00;;;;;;4840510;29;20060;-45
2023/05/02 09:36:45;;;;;;;4.55;1.42;;;17.80;1.00;;;;;;4841013;29;20048;-44
2023/05/02 09:39:15;;;;;;;4.07;1.20;;;17.70;1.00;;;;;;4841066;29;20135;-46
2023/05/02 09:41:46;;;;;;;4.63;1.85;;;17.80;1.00;;;;;;4841502;29;20374;-45
2023/05/02 09:44:18;;;;;;;1.77;1.02;;;17.70;1.00;;;;;;4840603;29;20046;-44
2023/05/02 09:46:51;;;;;;;2.38;1.08;;;17.80;1.00;;;;;;4840805;29;20079;-45
2023/05/02 09:49:19;;;;;;;2.30;1.08;;;17.70;1.00;;;;;;4840773;29;20246;-44
2023/05/02 09:51:47;;;;;;;3.35;1.08;;;17.70;1.00;;;;;;4840846;29;20037;-43
2023/05/02 09:54:32;;;;;;;3.75;1.10;;;17.70;1.00;;;;;;4840663;29;20038;-43
2023/05/02 09:57:00;;;;;;;4.07;1.20;;;17.70;1.00;;;;;;4841037;29;20045;-44
2023/05/02 09:59:27;;;;;;;3.95;1.33;;;17.80;1.00;;;;;;4840665;29;20075;-44
2023/05/02 10:02:06;;;;;;;2.78;1.88;;;17.80;1.00;;;;;;4841022;29;20074;-44
2023/05/02 10:04:33;;;;;;;1.85;1.05;;;17.70;1.00;;;;;;4840401;29;20050;-43
2023/05/02 10:07:02;;;;;;;2.78;1.10;;;17.80;1.00;;;;;;4840839;29;20042;-44
2023/05/02 10:09:33;;;;;;;1.40;0.80;;;17.80;1.00;;;;;;4840479;29;20476;-43
2023/05/02 10:12:03;;;;;;;3.60;1.40;;;17.80;1.00;;;;;;4840832;29;20521;-44
2023/05/02 10:14:34;;;;;;;5.40;1.45;;;17.80;1.00;;;;;;4843290;29;20038;-43
2023/05/02 10:17:08;;;;;;;2.38;1.17;;;17.80;1.00;;;;;;4844255;29;20038;-44
2023/05/02 10:19:52;;;;;;;4.82;1.38;;;17.80;1.00;;;;;;4843923;29;20050;-43
2023/05/02 10:22:20;;;;;;;2.88;1.30;;;17.80;1.00;;;;;;4844037;29;20468;-46
2023/05/02 10:24:56;;;;;;;2.22;1.10;;;17.80;1.00;;;;;;4843445;29;20046;-43
2023/05/02 10:27:24;;;;;;;2.85;1.13;;;17.80;1.00;;;;;;4843926;29;20045;-43
2023/05/02 10:29:51;;;;;;;4.70;1.15;;;17.80;1.00;;;;;;4843684;29;20129;-43
2023/05/02 10:32:21;;;;;;;4.20;0.98;;;17.80;1.00;;;;;;4844041;29;20170;-45
2023/05/02 10:34:50;;;;;;;2.35;1.10;;;17.80;1.00;;;;;;4843268;29;20555;-46
2023/05/02 10:37:18;;;;;;;3.40;0.98;;;17.80;1.00;;;;;;4843844;29;20558;-45
2023/05/02 10:39:45;;;;;;;3.35;1.33;;;17.90;1.00;;;;;;4843626;29;20074;-44
2023/05/02 10:42:13;;;;;;;1.77;1.10;;;17.90;1.00;;;;;;4843781;29;20053;-44
2023/05/02 10:44:40;;;;;;;3.95;1.25;;;17.80;1.00;;;;;;4842970;29;20125;-44
2023/05/02 10:47:25;;;;;;;2.75;1.10;;;17.90;1.00;;;;;;4843570;29;20049;-44
2023/05/02 10:49:55;;;;;;;3.10;1.25;;;17.80;1.00;;;;;;4843294;29;20411;-44
2023/05/02 10:52:30;;;;;;;3.17;1.45;;;17.90;1.00;;;;;;4843610;29;20045;-44
2023/05/02 10:55:16;;;;;;;2.92;1.67;;;17.90;1.00;;;;;;4842974;29;20042;-44
2023/05/02 10:57:58;;;;;;;2.53;1.30;;;17.90;1.00;;;;;;4843437;29;20354;-45
2023/05/02 11:00:31;;;;;;;1.77;1.08;;;17.90;1.00;;;;;;4843339;29;20117;-45
2023/05/02 11:02:59;;;;;;;2.10;0.82;;;17.90;1.00;;;;;;4828468;29;20502;-43
2023/05/02 11:05:27;;;;;;;2.65;1.23;;;17.90;1.00;;;;;;4843098;29;20054;-44
2023/05/02 11:08:18;;;;;;;4.00;1.25;;;17.90;1.00;;;;;;4843234;29;20129;-44
2023/05/02 11:10:48;;;;;;;2.28;0.93;;;17.90;1.00;;;;;;4842940;29;20074;-44
2023/05/02 11:13:15;;;;;;;4.47;1.52;;;17.90;1.00;;;;;;4843096;29;20399;-44
2023/05/02 11:15:42;;;;;;;3.97;1.10;;;17.90;1.00;;;;;;4842801;29;20057;-44
2023/05/02 11:18:13;;;;;;;2.67;1.08;;;17.90;1.00;;;;;;4843107;29;20107;-45
2023/05/02 11:20:42;;;;;;;3.40;1.00;;;17.90;1.00;;;;;;4842752;29;20114;-45
2023/05/02 11:23:15;;;;;;;2.25;1.00;;;17.90;1.00;;;;;;4842922;29;20053;-44
2023/05/02 11:25:44;;;;;;;2.15;0.90;;;17.90;1.00;;;;;;4841440;29;20058;-44
2023/05/02 11:28:35;;;;;;;4.43;1.10;;;17.90;1.00;;;;;;4842874;29;20462;-44
2023/05/02 11:31:29;;;;;;;2.90;0.88;;;17.90;1.00;;;;;;4842730;29;20045;-44
2023/05/02 11:33:56;;;;;;;;;;;18.00;1.00;;;;;;4842860;29;20455;-44
2023/05/02 11:36:33;;;;;;;4.68;1.05;;;17.90;1.00;;;;;;4842625;29;19930;-43
2023/05/02 11:39:02;;;;;;;1.92;0.85;;;17.90;1.00;;;;;;4842854;29;20049;-44
2023/05/02 11:41:39;;;;;;;3.17;1.02;;;17.90;1.00;;;;;;4842607;29;20410;-45
2023/05/02 11:44:06;;;;;;;4.60;1.17;;;18.00;1.00;;;;;;4842349;29;20073;-44
2023/05/02 11:46:36;;;;;;;3.13;1.10;;;17.90;1.00;;;;;;4842629;29;20045;-45
2023/05/02 11:49:03;;;;;;;1.67;0.73;;;18.00;1.00;;;;;;4842540;29;20045;-44
2023/05/02 11:51:33;;;;;;;3.55;1.15;;;17.90;1.00;;;;;;4842928;29;20042;-44
2023/05/02 11:54:00;;;;;;;2.75;1.00;;;18.00;1.00;;;;;;4841971;29;20077;-44
2023/05/02 11:56:27;;;;;;;3.00;1.02;;;18.00;1.00;;;;;;4842118;29;20044;-44
2023/05/02 11:59:01;;;;;;;5.07;1.27;;;18.00;1.00;;;;;;4841935;29;20046;-43
2023/05/02 12:01:31;;;;;;;3.15;1.05;;;18.00;1.00;;;;;;4842461;29;20048;-44
2023/05/02 12:04:07;;;;;;;2.75;0.85;;;18.00;1.00;;;;;;4841921;29;20120;-44
2023/05/02 12:06:34;;;;;;;3.03;0.98;;;18.00;1.00;;;;;;4842297;29;20086;-45
2023/05/02 12:09:10;;;;;;;3.65;0.70;;;18.00;1.00;;;;;;4841946;29;20559;-42
2023/05/02 12:11:37;;;;;;;3.85;1.23;;;18.00;1.00;;;;;;4842139;29;20460;-43
2023/05/02 12:14:05;;;;;;;1.42;0.90;;;18.00;1.00;;;;;;4834564;29;20041;-42
2023/05/02 12:16:32;;;;;;;1.70;0.73;;;18.00;1.00;;;;;;4842165;29;20046;-43
2023/05/02 12:18:59;;;;;;;3.15;0.90;;;18.00;1.00;;;;;;4841672;29;20395;-44
2023/05/02 12:21:33;;;;;;;2.60;1.17;;;18.00;1.00;;;;;;4842237;29;20095;-43
2023/05/02 12:24:01;;;;;;;1.77;1.02;;;18.00;1.00;;;;;;4841657;29;20476;-43
2023/05/02 12:26:32;;;;;;;1.42;0.80;;;18.00;1.00;;;;;;4841941;29;20085;-43
2023/05/02 12:29:01;;;;;;;1.52;1.05;;;18.00;1.00;;;;;;4839097;29;20078;-44
2023/05/02 12:31:29;;;;;;;4.75;0.82;;;18.00;1.00;;;;;;4837436;29;20042;-44
2023/05/02 12:33:58;;;;;;;2.05;1.08;;;18.00;1.00;;;;;;4841516;29;20042;-44
2023/05/02 12:36:27;;;;;;;3.85;0.90;;;18.00;1.00;;;;;;4841259;29;20042;-44
2023/05/02 12:38:58;;;;;;;3.05;0.90;;;18.00;1.00;;;;;;4841672;29;20134;-45
2023/05/02 12:41:37;;;;;;;2.65;1.05;;;18.00;1.00;;;;;;4841734;29;20057;-44
2023/05/02 12:44:04;;;;;;;1.80;0.85;;;18.00;1.00;;;;;;4841106;29;20042;-44
2023/05/02 12:46:31;;;;;;;2.40;0.80;;;18.00;1.00;;;;;;4841602;29;20114;-44
2023/05/02 12:49:08;;;;;;;2.42;0.80;;;18.00;1.00;;;;;;4841577;29;20846;-45
2023/05/02 12:51:37;;;;;;;5.20;1.00;;;18.00;1.00;;;;;;4841670;29;20042;-44
2023/05/02 12:54:04;;;;;;;3.15;0.70;;;18.00;1.00;;;;;;4841412;29;20049;-44
2023/05/02 12:56:38;;;;;;;2.28;0.98;;;18.00;1.00;;;;;;4841317;29;20443;-43
2023/05/02 12:59:06;;;;;;;3.60;0.80;;;18.00;1.00;;;;;;4841376;29;20046;-46
2023/05/02 13:01:33;;;;;;;2.05;0.95;;;18.00;1.00;;;;;;4841399;29;20049;-44
2023/05/02 13:04:01;;;;;;;2.78;1.00;;;18.00;1.00;;;;;;4841204;29;20129;-44
2023/05/02 13:06:28;;;;;;;1.27;0.70;;;18.00;1.00;;;;;;4841486;29;20562;-46
2023/05/02 13:08:54;;;;;;;1.38;0.70;;;18.10;1.00;;;;;;4840910;29;20045;-44
2023/05/02 13:11:21;;;;;;;3.22;0.85;;;18.00;1.00;;;;;;4841244;29;20563;-44
2023/05/02 13:13:48;;;;;;;4.82;0.95;;;18.10;1.00;;;;;;4840978;29;20046;-45